sensor_id;sensor_type;location;lat;lon;timestamp;temperature;humidity
32769;DHT22;23049;54.304;8.826;2023-09-19T00:01:53;17.70;99.90
32769;DHT22;23049;54.304;8.826;2023-09-19T00:04:18;17.80;99.90
32769;DHT22;23049;54.304;8.826;2023-09-19T00:06:48;17.70;99.90
32769;DHT22;23049;54.304;8.826;2023-09-19T00:09:15;17.60;99.90
32769;DHT22;23049;54.304;8.826;2023-09-19T00:11:40;17.60;99.90
32769;DHT22;23049;54.304;8.826;2023-09-19T00:14:06;17.60;99.90
32769;DHT22;23049;54.304;8.826;2023-09-19T00:16:34;17.50;99.90
32769;DHT22;23049;54.304;8.826;2023-09-19T00:18:59;17.40;99.90
32769;DHT22;23049;54.304;8.826;2023-09-19T00:21:31;17.40;99.90
32769;DHT22;23049;54.304;8.826;2023-09-19T00:23:56;17.30;99.90
32769;DHT22;23049;54.304;8.826;2023-09-19T00:26:22;17.30;99.90
32769;DHT22;23049;54.304;8.826;2023-09-19T00:28:48;17.20;99.90
32769;DHT22;23049;54.304;8.826;2023-09-19T00:31:13;17.20;99.90
32769;DHT22;23049;54.304;8.826;2023-09-19T00:33:39;17.20;99.90
32769;DHT22;23049;54.304;8.826;2023-09-19T00:36:04;17.20;99.90
32769;DHT22;23049;54.304;8.826;2023-09-19T00:38:30;17.20;99.90
32769;DHT22;23049;54.304;8.826;2023-09-19T00:40:57;17.10;99.90
32769;DHT22;23049;54.304;8.826;2023-09-19T00:43:23;17.20;99.90
32769;DHT22;23049;54.304;8.826;2023-09-19T00:45:51;17.20;99.90
32769;DHT22;23049;54.304;8.826;2023-09-19T00:48:17;17.20;99.90
32769;DHT22;23049;54.304;8.826;2023-09-19T00:50:44;17.20;99.90
32769;DHT22;23049;54.304;8.826;2023-09-19T00:53:13;17.20;99.90
32769;DHT22;23049;54.304;8.826;2023-09-19T00:55:39;17.20;99.90
32769;DHT22;23049;54.304;8.826;2023-09-19T00:58:06;17.20;99.90
32769;DHT22;23049;54.304;8.826;2023-09-19T01:00:33;17.10;99.90
32769;DHT22;23049;54.304;8.826;2023-09-19T01:02:59;17.10;99.90
32769;DHT22;23049;54.304;8.826;2023-09-19T01:05:26;17.10;99.90
32769;DHT22;23049;54.304;8.826;2023-09-19T01:07:51;17.10;99.90
32769;DHT22;23049;54.304;8.826;2023-09-19T01:10:18;17.00;99.90
32769;DHT22;23049;54.304;8.826;2023-09-19T01:15:24;17.10;99.90
32769;DHT22;23049;54.304;8.826;2023-09-19T01:18:10;17.10;99.90
32769;DHT22;23049;54.304;8.826;2023-09-19T01:23:20;17.00;99.90
32769;DHT22;23049;54.304;8.826;2023-09-19T01:28:30;17.10;99.90
32769;DHT22;23049;54.304;8.826;2023-09-19T01:30:58;17.00;99.90
32769;DHT22;23049;54.304;8.826;2023-09-19T01:33:25;16.90;99.90
32769;DHT22;23049;54.304;8.826;2023-09-19T01:38:11;16.90;99.90
32769;DHT22;23049;54.304;8.826;2023-09-19T01:55:50;16.80;99.90
32769;DHT22;23049;54.304;8.826;2023-09-19T01:58:21;16.90;99.90
32769;DHT22;23049;54.304;8.826;2023-09-19T02:00:48;16.80;99.90
32769;DHT22;23049;54.304;8.826;2023-09-19T02:03:15;16.90;99.90
32769;DHT22;23049;54.304;8.826;2023-09-19T02:05:41;16.80;99.90
32769;DHT22;23049;54.304;8.826;2023-09-19T02:08:15;16.70;99.90
32769;DHT22;23049;54.304;8.826;2023-09-19T02:10:41;16.70;99.90
32769;DHT22;23049;54.304;8.826;2023-09-19T02:13:07;16.80;99.90
32769;DHT22;23049;54.304;8.826;2023-09-19T02:15:32;16.90;99.90
32769;DHT22;23049;54.304;8.826;2023-09-19T02:17:59;16.80;99.90
32769;DHT22;23049;54.304;8.826;2023-09-19T02:20:25;16.30;99.90
32769;DHT22;23049;54.304;8.826;2023-09-19T02:22:51;16.00;99.90
32769;DHT22;23049;54.304;8.826;2023-09-19T02:25:17;15.50;99.90
32769;DHT22;23049;54.304;8.826;2023-09-19T02:27:43;15.30;99.90
32769;DHT22;23049;54.304;8.826;2023-09-19T02:30:09;15.20;99.90
32769;DHT22;23049;54.304;8.826;2023-09-19T02:32:35;15.30;99.90
32769;DHT22;23049;54.304;8.826;2023-09-19T02:35:04;15.40;99.90
32769;DHT22;23049;54.304;8.826;2023-09-19T02:37:30;15.40;99.90
32769;DHT22;23049;54.304;8.826;2023-09-19T02:39:56;15.50;99.90
32769;DHT22;23049;54.304;8.826;2023-09-19T02:42:21;15.60;99.90
32769;DHT22;23049;54.304;8.826;2023-09-19T02:44:47;15.70;99.90
32769;DHT22;23049;54.304;8.826;2023-09-19T02:47:13;15.80;99.90
32769;DHT22;23049;54.304;8.826;2023-09-19T02:49:40;15.80;99.90
32769;DHT22;23049;54.304;8.826;2023-09-19T02:52:06;15.70;99.90
32769;DHT22;23049;54.304;8.826;2023-09-19T02:54:32;15.70;99.90
32769;DHT22;23049;54.304;8.826;2023-09-19T02:56:58;15.70;99.90
32769;DHT22;23049;54.304;8.826;2023-09-19T02:59:24;15.70;99.90
32769;DHT22;23049;54.304;8.826;2023-09-19T03:01:50;15.60;99.90
32769;DHT22;23049;54.304;8.826;2023-09-19T03:04:15;15.50;99.90
32769;DHT22;23049;54.304;8.826;2023-09-19T03:06:45;15.40;99.90
32769;DHT22;23049;54.304;8.826;2023-09-19T03:09:11;15.50;99.90
32769;DHT22;23049;54.304;8.826;2023-09-19T03:11:36;15.50;99.90
32769;DHT22;23049;54.304;8.826;2023-09-19T03:14:02;15.50;99.90
32769;DHT22;23049;54.304;8.826;2023-09-19T03:16:28;15.50;99.90
32769;DHT22;23049;54.304;8.826;2023-09-19T03:18:53;15.70;99.90
32769;DHT22;23049;54.304;8.826;2023-09-19T03:21:19;15.60;99.90
32769;DHT22;23049;54.304;8.826;2023-09-19T03:23:44;15.70;99.90
32769;DHT22;23049;54.304;8.826;2023-09-19T03:26:13;15.80;99.90
32769;DHT22;23049;54.304;8.826;2023-09-19T03:28:41;15.70;99.90
32769;DHT22;23049;54.304;8.826;2023-09-19T03:31:07;15.90;99.90
32769;DHT22;23049;54.304;8.826;2023-09-19T03:33:33;15.90;99.90
32769;DHT22;23049;54.304;8.826;2023-09-19T03:35:59;15.90;99.90
32769;DHT22;23049;54.304;8.826;2023-09-19T03:38:26;15.90;99.90
32769;DHT22;23049;54.304;8.826;2023-09-19T03:40:52;15.90;99.90
32769;DHT22;23049;54.304;8.826;2023-09-19T03:43:18;15.90;99.90
32769;DHT22;23049;54.304;8.826;2023-09-19T03:45:44;16.00;99.90
32769;DHT22;23049;54.304;8.826;2023-09-19T03:48:10;16.00;99.90
32769;DHT22;23049;54.304;8.826;2023-09-19T03:50:35;15.90;99.90
32769;DHT22;23049;54.304;8.826;2023-09-19T03:53:01;15.60;99.90
32769;DHT22;23049;54.304;8.826;2023-09-19T03:55:27;15.40;99.90
32769;DHT22;23049;54.304;8.826;2023-09-19T03:57:53;15.30;99.90
32769;DHT22;23049;54.304;8.826;2023-09-19T04:00:18;15.10;99.90
32769;DHT22;23049;54.304;8.826;2023-09-19T04:02:51;15.00;99.90
32769;DHT22;23049;54.304;8.826;2023-09-19T04:05:16;15.10;99.90
32769;DHT22;23049;54.304;8.826;2023-09-19T04:07:42;15.20;99.90
32769;DHT22;23049;54.304;8.826;2023-09-19T04:10:08;15.20;99.90
32769;DHT22;23049;54.304;8.826;2023-09-19T04:12:40;15.30;99.90
32769;DHT22;23049;54.304;8.826;2023-09-19T04:15:06;15.30;99.90
32769;DHT22;23049;54.304;8.826;2023-09-19T04:17:31;15.30;99.90
32769;DHT22;23049;54.304;8.826;2023-09-19T04:20:00;15.30;99.90
32769;DHT22;23049;54.304;8.826;2023-09-19T04:22:25;15.50;99.90
32769;DHT22;23049;54.304;8.826;2023-09-19T04:24:51;15.50;99.90
32769;DHT22;23049;54.304;8.826;2023-09-19T04:27:16;15.60;99.90
32769;DHT22;23049;54.304;8.826;2023-09-19T04:29:42;15.50;99.90
32769;DHT22;23049;54.304;8.826;2023-09-19T04:32:08;15.10;99.90
32769;DHT22;23049;54.304;8.826;2023-09-19T04:34:35;14.90;99.90
32769;DHT22;23049;54.304;8.826;2023-09-19T04:37:00;14.70;99.90
32769;DHT22;23049;54.304;8.826;2023-09-19T04:39:27;14.60;99.90
32769;DHT22;23049;54.304;8.826;2023-09-19T04:41:53;14.60;99.90
32769;DHT22;23049;54.304;8.826;2023-09-19T04:44:19;14.50;99.90
32769;DHT22;23049;54.304;8.826;2023-09-19T04:46:45;14.60;99.90
32769;DHT22;23049;54.304;8.826;2023-09-19T04:49:11;14.70;99.90
32769;DHT22;23049;54.304;8.826;2023-09-19T04:51:38;14.80;99.90
32769;DHT22;23049;54.304;8.826;2023-09-19T04:54:03;14.80;99.90
32769;DHT22;23049;54.304;8.826;2023-09-19T04:56:29;14.80;99.90
32769;DHT22;23049;54.304;8.826;2023-09-19T04:58:55;14.60;99.90
32769;DHT22;23049;54.304;8.826;2023-09-19T05:01:20;14.60;99.90
32769;DHT22;23049;54.304;8.826;2023-09-19T05:03:48;14.70;99.90
32769;DHT22;23049;54.304;8.826;2023-09-19T05:06:20;14.80;99.90
32769;DHT22;23049;54.304;8.826;2023-09-19T05:08:46;14.90;99.90
32769;DHT22;23049;54.304;8.826;2023-09-19T05:13:33;15.10;99.90
32769;DHT22;23049;54.304;8.826;2023-09-19T05:16:02;15.20;99.90
32769;DHT22;23049;54.304;8.826;2023-09-19T05:18:28;15.10;99.90
32769;DHT22;23049;54.304;8.826;2023-09-19T05:20:53;15.10;99.90
32769;DHT22;23049;54.304;8.826;2023-09-19T05:23:20;15.20;99.90
32769;DHT22;23049;54.304;8.826;2023-09-19T05:25:46;15.20;99.90
32769;DHT22;23049;54.304;8.826;2023-09-19T05:28:12;15.20;99.90
32769;DHT22;23049;54.304;8.826;2023-09-19T05:30:40;15.30;99.90
32769;DHT22;23049;54.304;8.826;2023-09-19T05:33:08;15.40;99.90
32769;DHT22;23049;54.304;8.826;2023-09-19T05:35:34;15.50;99.90
32769;DHT22;23049;54.304;8.826;2023-09-19T05:38:02;15.50;99.90
32769;DHT22;23049;54.304;8.826;2023-09-19T05:40:27;15.50;99.90
32769;DHT22;23049;54.304;8.826;2023-09-19T05:45:16;15.50;99.90
32769;DHT22;23049;54.304;8.826;2023-09-19T05:47:48;15.50;99.90
32769;DHT22;23049;54.304;8.826;2023-09-19T05:50:14;15.50;99.90
32769;DHT22;23049;54.304;8.826;2023-09-19T05:52:41;15.50;99.90
32769;DHT22;23049;54.304;8.826;2023-09-19T05:55:08;15.50;99.90
32769;DHT22;23049;54.304;8.826;2023-09-19T05:57:34;15.50;99.90
32769;DHT22;23049;54.304;8.826;2023-09-19T06:00:00;15.50;99.90
32769;DHT22;23049;54.304;8.826;2023-09-19T06:02:25;15.60;99.90
32769;DHT22;23049;54.304;8.826;2023-09-19T06:04:54;15.60;99.90
32769;DHT22;23049;54.304;8.826;2023-09-19T06:07:21;15.60;99.90
32769;DHT22;23049;54.304;8.826;2023-09-19T06:09:47;15.70;99.90
32769;DHT22;23049;54.304;8.826;2023-09-19T06:14:25;15.70;99.90
32769;DHT22;23049;54.304;8.826;2023-09-19T06:16:51;15.60;99.90
32769;DHT22;23049;54.304;8.826;2023-09-19T06:19:19;15.60;99.90
32769;DHT22;23049;54.304;8.826;2023-09-19T06:21:48;15.60;99.90
32769;DHT22;23049;54.304;8.826;2023-09-19T06:24:14;15.70;99.90
32769;DHT22;23049;54.304;8.826;2023-09-19T06:26:40;15.60;99.90
32769;DHT22;23049;54.304;8.826;2023-09-19T06:29:05;15.60;99.90
32769;DHT22;23049;54.304;8.826;2023-09-19T06:33:47;15.40;99.90
32769;DHT22;23049;54.304;8.826;2023-09-19T06:36:13;15.40;99.90
32769;DHT22;23049;54.304;8.826;2023-09-19T06:38:39;15.30;99.90
32769;DHT22;23049;54.304;8.826;2023-09-19T06:41:04;15.20;99.90
32769;DHT22;23049;54.304;8.826;2023-09-19T06:43:31;15.00;99.90
32769;DHT22;23049;54.304;8.826;2023-09-19T06:45:56;15.00;99.90
32769;DHT22;23049;54.304;8.826;2023-09-19T06:48:22;15.00;99.90
32769;DHT22;23049;54.304;8.826;2023-09-19T06:50:50;15.00;99.90
32769;DHT22;23049;54.304;8.826;2023-09-19T06:53:16;15.00;99.90
32769;DHT22;23049;54.304;8.826;2023-09-19T06:55:41;14.90;99.90
32769;DHT22;23049;54.304;8.826;2023-09-19T06:58:09;14.90;99.90
32769;DHT22;23049;54.304;8.826;2023-09-19T07:00:36;15.00;99.90
32769;DHT22;23049;54.304;8.826;2023-09-19T07:05:29;15.00;99.90
32769;DHT22;23049;54.304;8.826;2023-09-19T07:07:56;14.90;99.90
32769;DHT22;23049;54.304;8.826;2023-09-19T07:10:24;14.90;99.90
32769;DHT22;23049;54.304;8.826;2023-09-19T07:13:00;14.90;99.90
32769;DHT22;23049;54.304;8.826;2023-09-19T07:15:26;15.10;99.90
32769;DHT22;23049;54.304;8.826;2023-09-19T07:17:52;15.10;99.90
32769;DHT22;23049;54.304;8.826;2023-09-19T07:20:22;15.20;99.90
32769;DHT22;23049;54.304;8.826;2023-09-19T07:22:48;15.30;99.90
32769;DHT22;23049;54.304;8.826;2023-09-19T07:25:16;15.40;99.90
32769;DHT22;23049;54.304;8.826;2023-09-19T07:27:41;15.50;99.90
32769;DHT22;23049;54.304;8.826;2023-09-19T07:30:07;15.50;99.90
32769;DHT22;23049;54.304;8.826;2023-09-19T07:34:45;15.60;99.90
32769;DHT22;23049;54.304;8.826;2023-09-19T07:37:11;15.60;99.90
32769;DHT22;23049;54.304;8.826;2023-09-19T07:39:38;15.70;99.90
32769;DHT22;23049;54.304;8.826;2023-09-19T07:42:06;15.70;99.90
32769;DHT22;23049;54.304;8.826;2023-09-19T07:44:34;15.80;99.90
32769;DHT22;23049;54.304;8.826;2023-09-19T07:47:00;15.70;99.90
32769;DHT22;23049;54.304;8.826;2023-09-19T07:49:28;15.60;99.90
32769;DHT22;23049;54.304;8.826;2023-09-19T07:54:06;15.50;99.90
32769;DHT22;23049;54.304;8.826;2023-09-19T07:56:33;15.60;99.90
32769;DHT22;23049;54.304;8.826;2023-09-19T07:58:59;15.50;99.90
32769;DHT22;23049;54.304;8.826;2023-09-19T08:01:24;15.40;99.90
32769;DHT22;23049;54.304;8.826;2023-09-19T08:03:52;15.40;99.90
32769;DHT22;23049;54.304;8.826;2023-09-19T08:06:18;15.40;99.90
32769;DHT22;23049;54.304;8.826;2023-09-19T08:08:45;15.50;99.90
32769;DHT22;23049;54.304;8.826;2023-09-19T08:11:11;15.50;99.90
32769;DHT22;23049;54.304;8.826;2023-09-19T08:13:40;15.70;99.90
32769;DHT22;23049;54.304;8.826;2023-09-19T08:16:12;16.00;99.90
32769;DHT22;23049;54.304;8.826;2023-09-19T08:18:37;16.10;99.90
32769;DHT22;23049;54.304;8.826;2023-09-19T08:21:05;16.00;99.90
32769;DHT22;23049;54.304;8.826;2023-09-19T08:23:33;16.10;99.90
32769;DHT22;23049;54.304;8.826;2023-09-19T08:25:58;16.10;99.90
32769;DHT22;23049;54.304;8.826;2023-09-19T08:28:28;16.00;99.90
32769;DHT22;23049;54.304;8.826;2023-09-19T08:33:07;16.00;99.90
32769;DHT22;23049;54.304;8.826;2023-09-19T08:35:33;16.00;99.90
32769;DHT22;23049;54.304;8.826;2023-09-19T08:37:58;16.00;99.90
32769;DHT22;23049;54.304;8.826;2023-09-19T08:40:32;16.10;99.90
32769;DHT22;23049;54.304;8.826;2023-09-19T08:42:58;16.10;99.90
32769;DHT22;23049;54.304;8.826;2023-09-19T08:45:24;16.00;99.90
32769;DHT22;23049;54.304;8.826;2023-09-19T08:51:22;15.90;99.90
32769;DHT22;23049;54.304;8.826;2023-09-19T08:58:46;16.00;99.90
32769;DHT22;23049;54.304;8.826;2023-09-19T09:01:14;16.00;99.90
32769;DHT22;23049;54.304;8.826;2023-09-19T09:03:40;16.10;99.90
32769;DHT22;23049;54.304;8.826;2023-09-19T09:06:08;16.10;99.90
32769;DHT22;23049;54.304;8.826;2023-09-19T09:08:40;16.20;99.90
32769;DHT22;23049;54.304;8.826;2023-09-19T09:11:07;16.20;99.90
32769;DHT22;23049;54.304;8.826;2023-09-19T09:15:45;16.20;99.90
32769;DHT22;23049;54.304;8.826;2023-09-19T09:18:11;16.20;99.90
32769;DHT22;23049;54.304;8.826;2023-09-19T09:20:37;16.30;99.90
32769;DHT22;23049;54.304;8.826;2023-09-19T09:23:02;16.30;99.90
32769;DHT22;23049;54.304;8.826;2023-09-19T09:25:49;16.20;99.90
32769;DHT22;23049;54.304;8.826;2023-09-19T09:28:22;16.10;99.90
32769;DHT22;23049;54.304;8.826;2023-09-19T09:30:48;15.90;99.90
32769;DHT22;23049;54.304;8.826;2023-09-19T09:33:14;16.00;99.90
32769;DHT22;23049;54.304;8.826;2023-09-19T09:35:50;16.20;99.90
32769;DHT22;23049;54.304;8.826;2023-09-19T09:38:17;16.40;99.90
32769;DHT22;23049;54.304;8.826;2023-09-19T09:40:48;16.60;99.90
32769;DHT22;23049;54.304;8.826;2023-09-19T09:43:30;16.80;99.90
32769;DHT22;23049;54.304;8.826;2023-09-19T09:46:07;16.80;99.90
32769;DHT22;23049;54.304;8.826;2023-09-19T09:49:05;17.00;99.90
32769;DHT22;23049;54.304;8.826;2023-09-19T09:54:23;17.00;99.90
32769;DHT22;23049;54.304;8.826;2023-09-19T09:57:07;17.10;99.90
32769;DHT22;23049;54.304;8.826;2023-09-19T09:59:45;17.10;99.90
32769;DHT22;23049;54.304;8.826;2023-09-19T10:02:30;17.10;99.90
32769;DHT22;23049;54.304;8.826;2023-09-19T10:05:12;17.10;99.90
32769;DHT22;23049;54.304;8.826;2023-09-19T10:07:53;17.00;99.90
32769;DHT22;23049;54.304;8.826;2023-09-19T10:10:32;17.00;99.90
32769;DHT22;23049;54.304;8.826;2023-09-19T10:13:07;17.00;99.90
32769;DHT22;23049;54.304;8.826;2023-09-19T10:15:37;17.10;99.90
32769;DHT22;23049;54.304;8.826;2023-09-19T10:18:06;17.20;99.90
32769;DHT22;23049;54.304;8.826;2023-09-19T10:20:33;17.20;99.90
32769;DHT22;23049;54.304;8.826;2023-09-19T10:23:05;17.00;99.90
32769;DHT22;23049;54.304;8.826;2023-09-19T10:25:35;17.10;99.90
32769;DHT22;23049;54.304;8.826;2023-09-19T10:28:02;17.30;99.90
32769;DHT22;23049;54.304;8.826;2023-09-19T10:30:34;17.40;99.90
32769;DHT22;23049;54.304;8.826;2023-09-19T10:33:02;17.60;99.90
32769;DHT22;23049;54.304;8.826;2023-09-19T10:35:28;17.50;99.90
32769;DHT22;23049;54.304;8.826;2023-09-19T10:37:55;17.30;99.90
32769;DHT22;23049;54.304;8.826;2023-09-19T10:40:22;17.20;99.90
32769;DHT22;23049;54.304;8.826;2023-09-19T10:42:55;17.30;99.90
32769;DHT22;23049;54.304;8.826;2023-09-19T10:45:23;17.30;99.90
32769;DHT22;23049;54.304;8.826;2023-09-19T10:47:51;17.20;99.90
32769;DHT22;23049;54.304;8.826;2023-09-19T10:50:20;17.30;99.90
32769;DHT22;23049;54.304;8.826;2023-09-19T10:52:49;17.40;99.90
32769;DHT22;23049;54.304;8.826;2023-09-19T10:55:24;17.30;99.90
32769;DHT22;23049;54.304;8.826;2023-09-19T11:00:03;17.10;99.90
32769;DHT22;23049;54.304;8.826;2023-09-19T11:03:16;17.00;99.90
32769;DHT22;23049;54.304;8.826;2023-09-19T11:05:34;17.00;99.90
32769;DHT22;23049;54.304;8.826;2023-09-19T11:08:00;17.00;99.90
32769;DHT22;23049;54.304;8.826;2023-09-19T11:15:11;17.10;99.90
32769;DHT22;23049;54.304;8.826;2023-09-19T11:17:58;17.10;99.90
32769;DHT22;23049;54.304;8.826;2023-09-19T11:20:25;17.20;99.90
32769;DHT22;23049;54.304;8.826;2023-09-19T11:35:58;17.00;99.90
32769;DHT22;23049;54.304;8.826;2023-09-19T11:46:38;17.10;99.90
32769;DHT22;23049;54.304;8.826;2023-09-19T11:51:28;17.00;99.90
32769;DHT22;23049;54.304;8.826;2023-09-19T11:54:05;17.00;99.90
32769;DHT22;23049;54.304;8.826;2023-09-19T11:56:38;16.90;99.90
32769;DHT22;23049;54.304;8.826;2023-09-19T11:59:06;16.90;99.90
32769;DHT22;23049;54.304;8.826;2023-09-19T12:01:33;17.00;99.90
32769;DHT22;23049;54.304;8.826;2023-09-19T12:04:01;17.10;99.90
32769;DHT22;23049;54.304;8.826;2023-09-19T12:06:27;17.10;99.90
32769;DHT22;23049;54.304;8.826;2023-09-19T12:08:54;17.10;99.90
32769;DHT22;23049;54.304;8.826;2023-09-19T12:11:21;17.10;99.90
32769;DHT22;23049;54.304;8.826;2023-09-19T12:13:48;17.10;99.90
32769;DHT22;23049;54.304;8.826;2023-09-19T12:18:43;17.10;99.90
32769;DHT22;23049;54.304;8.826;2023-09-19T12:26:45;17.20;99.90
32769;DHT22;23049;54.304;8.826;2023-09-19T12:33:15;17.30;99.90
32769;DHT22;23049;54.304;8.826;2023-09-19T12:35:41;17.40;99.90
32769;DHT22;23049;54.304;8.826;2023-09-19T12:38:08;17.30;99.90
32769;DHT22;23049;54.304;8.826;2023-09-19T12:40:35;17.30;99.90
32769;DHT22;23049;54.304;8.826;2023-09-19T12:43:03;17.40;99.90
32769;DHT22;23049;54.304;8.826;2023-09-19T12:45:30;17.30;99.90
32769;DHT22;23049;54.304;8.826;2023-09-19T12:53:26;17.40;99.90
32769;DHT22;23049;54.304;8.826;2023-09-19T12:55:58;17.40;99.90
32769;DHT22;23049;54.304;8.826;2023-09-19T12:58:23;17.40;99.90
32769;DHT22;23049;54.304;8.826;2023-09-19T13:03:17;17.40;99.90
32769;DHT22;23049;54.304;8.826;2023-09-19T13:05:48;17.40;99.90
32769;DHT22;23049;54.304;8.826;2023-09-19T13:08:20;17.40;99.90
32769;DHT22;23049;54.304;8.826;2023-09-19T13:11:05;17.50;99.90
32769;DHT22;23049;54.304;8.826;2023-09-19T13:13:32;17.50;99.90
32769;DHT22;23049;54.304;8.826;2023-09-19T13:15:59;17.50;99.90
32769;DHT22;23049;54.304;8.826;2023-09-19T13:18:27;17.60;99.90
32769;DHT22;23049;54.304;8.826;2023-09-19T13:21:05;17.60;99.90
32769;DHT22;23049;54.304;8.826;2023-09-19T13:23:30;17.60;99.90
32769;DHT22;23049;54.304;8.826;2023-09-19T13:25:56;17.60;99.90
32769;DHT22;23049;54.304;8.826;2023-09-19T13:28:22;17.60;99.90
32769;DHT22;23049;54.304;8.826;2023-09-19T13:33:09;17.60;99.90
32769;DHT22;23049;54.304;8.826;2023-09-19T13:35:35;17.60;99.90
32769;DHT22;23049;54.304;8.826;2023-09-19T13:38:03;17.70;99.90
32769;DHT22;23049;54.304;8.826;2023-09-19T13:40:29;17.60;99.90
32769;DHT22;23049;54.304;8.826;2023-09-19T13:42:56;17.60;99.90
32769;DHT22;23049;54.304;8.826;2023-09-19T13:45:22;17.60;99.90
32769;DHT22;23049;54.304;8.826;2023-09-19T13:47:50;17.60;99.90
32769;DHT22;23049;54.304;8.826;2023-09-19T13:50:15;17.60;99.90
32769;DHT22;23049;54.304;8.826;2023-09-19T13:52:42;17.70;99.90
32769;DHT22;23049;54.304;8.826;2023-09-19T13:55:08;17.60;99.90
32769;DHT22;23049;54.304;8.826;2023-09-19T13:57:33;17.70;99.90
32769;DHT22;23049;54.304;8.826;2023-09-19T13:59:59;17.70;99.90
32769;DHT22;23049;54.304;8.826;2023-09-19T14:02:24;17.70;99.90
32769;DHT22;23049;54.304;8.826;2023-09-19T14:04:53;17.70;99.90
32769;DHT22;23049;54.304;8.826;2023-09-19T14:07:18;17.80;99.90
32769;DHT22;23049;54.304;8.826;2023-09-19T14:09:45;17.80;99.90
32769;DHT22;23049;54.304;8.826;2023-09-19T14:12:11;17.80;99.90
32769;DHT22;23049;54.304;8.826;2023-09-19T14:14:36;17.80;99.90
32769;DHT22;23049;54.304;8.826;2023-09-19T14:17:02;17.70;99.90
32769;DHT22;23049;54.304;8.826;2023-09-19T14:19:28;17.80;99.90
32769;DHT22;23049;54.304;8.826;2023-09-19T14:21:54;17.80;99.90
32769;DHT22;23049;54.304;8.826;2023-09-19T14:24:22;17.90;99.90
32769;DHT22;23049;54.304;8.826;2023-09-19T14:26:48;17.90;99.90
32769;DHT22;23049;54.304;8.826;2023-09-19T14:29:14;17.90;99.90
32769;DHT22;23049;54.304;8.826;2023-09-19T14:31:40;17.90;99.90
32769;DHT22;23049;54.304;8.826;2023-09-19T14:34:06;17.90;99.90
32769;DHT22;23049;54.304;8.826;2023-09-19T14:36:31;17.90;99.90
32769;DHT22;23049;54.304;8.826;2023-09-19T14:38:58;17.90;99.90
32769;DHT22;23049;54.304;8.826;2023-09-19T14:41:23;17.90;99.90
32769;DHT22;23049;54.304;8.826;2023-09-19T14:43:53;17.90;99.90
32769;DHT22;23049;54.304;8.826;2023-09-19T14:46:20;17.90;99.90
32769;DHT22;23049;54.304;8.826;2023-09-19T14:48:46;17.90;99.90
32769;DHT22;23049;54.304;8.826;2023-09-19T14:51:13;17.80;99.90
32769;DHT22;23049;54.304;8.826;2023-09-19T14:53:41;17.80;99.90
32769;DHT22;23049;54.304;8.826;2023-09-19T14:56:07;17.90;99.90
32769;DHT22;23049;54.304;8.826;2023-09-19T14:58:33;17.90;99.90
32769;DHT22;23049;54.304;8.826;2023-09-19T15:01:03;17.90;99.90
32769;DHT22;23049;54.304;8.826;2023-09-19T15:03:29;17.90;99.90
32769;DHT22;23049;54.304;8.826;2023-09-19T15:05:59;17.90;99.90
32769;DHT22;23049;54.304;8.826;2023-09-19T15:08:25;17.90;99.90
32769;DHT22;23049;54.304;8.826;2023-09-19T15:10:51;17.90;99.90
32769;DHT22;23049;54.304;8.826;2023-09-19T15:13:18;18.00;99.90
32769;DHT22;23049;54.304;8.826;2023-09-19T15:15:44;18.00;99.90
32769;DHT22;23049;54.304;8.826;2023-09-19T15:18:12;18.00;99.90
32769;DHT22;23049;54.304;8.826;2023-09-19T15:20:42;18.00;99.90
32769;DHT22;23049;54.304;8.826;2023-09-19T15:23:08;18.00;99.90
32769;DHT22;23049;54.304;8.826;2023-09-19T15:25:34;17.90;99.90
32769;DHT22;23049;54.304;8.826;2023-09-19T15:28:00;17.80;99.90
32769;DHT22;23049;54.304;8.826;2023-09-19T15:30:36;17.80;99.90
32769;DHT22;23049;54.304;8.826;2023-09-19T15:33:02;17.80;99.90
32769;DHT22;23049;54.304;8.826;2023-09-19T15:35:27;17.80;99.90
32769;DHT22;23049;54.304;8.826;2023-09-19T15:37:53;17.90;99.90
32769;DHT22;23049;54.304;8.826;2023-09-19T15:40:21;18.00;99.90
32769;DHT22;23049;54.304;8.826;2023-09-19T15:42:49;18.00;99.90
32769;DHT22;23049;54.304;8.826;2023-09-19T15:45:14;18.00;99.90
32769;DHT22;23049;54.304;8.826;2023-09-19T15:47:41;18.00;99.90
32769;DHT22;23049;54.304;8.826;2023-09-19T15:50:07;18.10;99.90
32769;DHT22;23049;54.304;8.826;2023-09-19T15:52:35;18.00;99.90
32769;DHT22;23049;54.304;8.826;2023-09-19T15:55:04;18.00;99.90
32769;DHT22;23049;54.304;8.826;2023-09-19T15:57:29;18.00;99.90
32769;DHT22;23049;54.304;8.826;2023-09-19T15:59:56;18.00;99.90
32769;DHT22;23049;54.304;8.826;2023-09-19T16:02:22;18.00;99.90
32769;DHT22;23049;54.304;8.826;2023-09-19T16:04:48;18.00;99.90
32769;DHT22;23049;54.304;8.826;2023-09-19T16:07:13;18.00;99.90
32769;DHT22;23049;54.304;8.826;2023-09-19T16:09:40;18.00;99.90
32769;DHT22;23049;54.304;8.826;2023-09-19T16:12:05;18.10;99.90
32769;DHT22;23049;54.304;8.826;2023-09-19T16:14:31;18.10;99.90
32769;DHT22;23049;54.304;8.826;2023-09-19T16:16:56;18.10;99.90
32769;DHT22;23049;54.304;8.826;2023-09-19T16:19:27;18.20;99.90
32769;DHT22;23049;54.304;8.826;2023-09-19T16:24:08;18.20;99.90
32769;DHT22;23049;54.304;8.826;2023-09-19T16:26:36;18.20;99.90
32769;DHT22;23049;54.304;8.826;2023-09-19T16:29:02;18.30;99.90
32769;DHT22;23049;54.304;8.826;2023-09-19T16:33:06;18.20;99.90
32769;DHT22;23049;54.304;8.826;2023-09-19T16:35:36;18.20;99.90
32769;DHT22;23049;54.304;8.826;2023-09-19T16:38:01;18.10;99.90
32769;DHT22;23049;54.304;8.826;2023-09-19T16:40:27;17.90;99.90
32769;DHT22;23049;54.304;8.826;2023-09-19T16:45:05;17.80;99.90
32769;DHT22;23049;54.304;8.826;2023-09-19T16:47:31;17.60;99.90
32769;DHT22;23049;54.304;8.826;2023-09-19T16:49:57;17.50;99.90
32769;DHT22;23049;54.304;8.826;2023-09-19T16:52:23;17.50;99.90
32769;DHT22;23049;54.304;8.826;2023-09-19T16:54:48;17.50;99.90
32769;DHT22;23049;54.304;8.826;2023-09-19T16:57:14;17.60;99.90
32769;DHT22;23049;54.304;8.826;2023-09-19T16:59:40;17.70;99.90
32769;DHT22;23049;54.304;8.826;2023-09-19T17:02:05;17.70;99.90
32769;DHT22;23049;54.304;8.826;2023-09-19T17:04:32;17.70;99.90
32769;DHT22;23049;54.304;8.826;2023-09-19T17:06:58;17.80;99.90
32769;DHT22;23049;54.304;8.826;2023-09-19T17:09:23;17.80;99.90
32769;DHT22;23049;54.304;8.826;2023-09-19T17:14:04;18.00;99.90
32769;DHT22;23049;54.304;8.826;2023-09-19T17:16:29;17.90;99.90
32769;DHT22;23049;54.304;8.826;2023-09-19T17:18:56;17.70;99.90
32769;DHT22;23049;54.304;8.826;2023-09-19T17:23:47;17.50;99.90
32769;DHT22;23049;54.304;8.826;2023-09-19T17:26:13;17.40;99.90
32769;DHT22;23049;54.304;8.826;2023-09-19T17:28:39;17.40;99.90
32769;DHT22;23049;54.304;8.826;2023-09-19T17:31:09;17.50;99.90
32769;DHT22;23049;54.304;8.826;2023-09-19T17:33:39;17.60;99.90